createdAt,value
2019-03-26T00:02:14.264Z,96.50
2019-03-26T00:04:45.187Z,96.30
2019-03-26T00:07:16.083Z,96.40
2019-03-26T00:09:47.104Z,96.90
2019-03-26T00:12:18.037Z,96.80
2019-03-26T00:14:48.933Z,96.90
2019-03-26T00:17:19.831Z,97.40
2019-03-26T00:19:50.723Z,97.80
2019-03-26T00:22:21.652Z,97.60
2019-03-26T00:24:52.537Z,97.90
2019-03-26T00:27:23.432Z,97.70
2019-03-26T00:29:54.320Z,97.90
2019-03-26T00:32:25.216Z,98.10
2019-03-26T00:34:56.130Z,98.30
2019-03-26T00:37:27.031Z,98.50
2019-03-26T00:39:57.915Z,98.80
2019-03-26T00:42:28.819Z,99.30
2019-03-26T00:44:59.706Z,99.40
2019-03-26T00:47:31.019Z,99.80
2019-03-26T00:50:01.925Z,99.80
2019-03-26T00:52:32.831Z,99.90
2019-03-26T00:55:03.647Z,99.90
2019-03-26T00:57:34.558Z,99.90
2019-03-26T01:00:05.855Z,99.90
2019-03-26T01:02:36.738Z,99.90
2019-03-26T01:05:07.874Z,99.90
2019-03-26T01:07:38.810Z,99.90
2019-03-26T01:10:15.259Z,99.90
2019-03-26T01:12:46.078Z,99.90
2019-03-26T01:15:16.975Z,99.90
2019-03-26T01:17:47.897Z,99.90
2019-03-26T01:20:18.795Z,99.90
2019-03-26T01:22:49.718Z,99.90
2019-03-26T01:25:20.548Z,99.90
2019-03-26T01:27:51.467Z,99.90
2019-03-26T01:30:22.350Z,99.90
2019-03-26T01:32:53.239Z,99.90
2019-03-26T01:35:24.130Z,99.90
2019-03-26T01:37:55.892Z,99.90
2019-03-26T01:40:26.799Z,99.90
2019-03-26T01:42:57.687Z,99.90
2019-03-26T01:45:28.566Z,99.90
2019-03-26T01:47:59.471Z,99.90
2019-03-26T01:50:30.247Z,99.90
2019-03-26T01:53:01.158Z,99.90
2019-03-26T01:55:32.038Z,99.90
2019-03-26T01:58:02.912Z,99.90
2019-03-26T02:00:33.812Z,99.90
2019-03-26T02:03:04.707Z,99.90
2019-03-26T02:05:35.595Z,99.90
2019-03-26T02:08:06.471Z,99.90
2019-03-26T02:10:37.395Z,99.90
2019-03-26T02:13:08.312Z,99.90
2019-03-26T02:15:39.199Z,99.90
2019-03-26T02:18:10.094Z,99.90
2019-03-26T02:20:40.966Z,99.90
2019-03-26T02:23:11.904Z,99.90
2019-03-26T02:25:42.815Z,99.90
2019-03-26T02:28:13.710Z,99.90
2019-03-26T02:30:44.584Z,99.90
2019-03-26T02:33:15.389Z,99.90
2019-03-26T02:35:46.303Z,99.90
2019-03-26T02:38:17.240Z,99.90
2019-03-26T02:40:48.147Z,99.90
2019-03-26T02:43:19.034Z,99.90
2019-03-26T02:45:49.947Z,99.90
2019-03-26T02:48:20.865Z,99.90
2019-03-26T02:50:51.774Z,99.90
2019-03-26T02:53:22.589Z,99.90
2019-03-26T02:55:53.477Z,99.90
2019-03-26T02:58:24.387Z,99.90
2019-03-26T03:00:55.281Z,99.90
2019-03-26T03:03:26.055Z,99.90
2019-03-26T03:05:56.961Z,99.90
2019-03-26T03:08:27.848Z,99.90
2019-03-26T03:10:58.759Z,99.90
2019-03-26T03:13:29.672Z,99.90
2019-03-26T03:16:00.567Z,99.90
2019-03-26T03:18:31.459Z,99.90
2019-03-26T03:21:02.280Z,99.90
2019-03-26T03:23:33.172Z,99.90
2019-03-26T03:26:04.068Z,99.90
2019-03-26T03:28:34.967Z,99.90
2019-03-26T03:31:05.854Z,99.90
2019-03-26T03:33:36.770Z,99.90
2019-03-26T03:36:07.647Z,99.90
2019-03-26T03:38:41.288Z,99.90
2019-03-26T03:41:11.093Z,99.90
2019-03-26T03:43:42.014Z,99.90
2019-03-26T03:46:12.910Z,99.90
2019-03-26T03:48:44.479Z,99.90
2019-03-26T03:51:17.195Z,99.90
2019-03-26T03:53:48.167Z,99.90
2019-03-26T03:56:20.935Z,99.90
2019-03-26T03:58:52.337Z,99.90
2019-03-26T04:01:23.234Z,99.90
2019-03-26T04:03:54.003Z,99.90
2019-03-26T04:06:24.900Z,99.90
2019-03-26T04:08:55.778Z,99.90
2019-03-26T04:11:26.594Z,99.90
2019-03-26T04:13:57.743Z,99.90
2019-03-26T04:16:28.622Z,99.90
2019-03-26T04:18:59.517Z,99.90
2019-03-26T04:21:30.391Z,99.90
2019-03-26T04:24:01.300Z,99.90
2019-03-26T04:26:32.176Z,99.90
2019-03-26T04:29:03.213Z,99.90
2019-03-26T04:31:34.095Z,99.90
2019-03-26T04:34:04.974Z,99.90
2019-03-26T04:36:35.868Z,99.90
2019-03-26T04:39:07.591Z,99.90
2019-03-26T04:41:38.418Z,99.90
2019-03-26T04:44:09.296Z,99.90
2019-03-26T04:46:40.194Z,99.90
2019-03-26T04:49:11.106Z,99.90
2019-03-26T04:51:42.022Z,99.90
2019-03-26T04:54:12.915Z,99.90
2019-03-26T04:56:43.720Z,99.90
2019-03-26T04:59:14.600Z,99.90
2019-03-26T05:01:45.470Z,99.90
2019-03-26T05:04:16.280Z,99.90
2019-03-26T05:06:47.154Z,99.90
2019-03-26T05:09:18.034Z,99.90
2019-03-26T05:11:48.826Z,99.90
2019-03-26T05:14:19.627Z,99.90
2019-03-26T05:16:50.563Z,99.90
2019-03-26T05:19:21.430Z,99.90
2019-03-26T05:21:52.234Z,99.90
2019-03-26T05:24:24.601Z,99.90
2019-03-26T05:26:55.395Z,99.90
2019-03-26T05:29:26.290Z,99.90
2019-03-26T05:31:57.162Z,99.90
2019-03-26T05:34:28.086Z,99.90
2019-03-26T05:36:58.971Z,99.90
2019-03-26T05:39:29.854Z,99.90
2019-03-26T05:42:00.739Z,99.90
2019-03-26T05:44:31.635Z,99.90
2019-03-26T05:47:02.539Z,99.00
2019-03-26T05:49:33.424Z,99.40
2019-03-26T05:52:04.302Z,97.10
2019-03-26T05:54:35.114Z,92.60
2019-03-26T05:57:05.987Z,91.00
2019-03-26T05:59:36.891Z,83.60
2019-03-26T06:02:14.191Z,79.70
2019-03-26T06:04:40.288Z,78.20
2019-03-26T06:07:11.166Z,76.30
2019-03-26T06:09:42.051Z,73.70
2019-03-26T06:12:12.858Z,69.60
2019-03-26T06:14:43.747Z,69.00
2019-03-26T06:17:14.836Z,66.50
2019-03-26T06:19:45.636Z,64.30
2019-03-26T06:22:16.508Z,62.80
2019-03-26T06:24:47.414Z,63.10
2019-03-26T06:27:18.299Z,62.80
2019-03-26T06:29:49.091Z,61.90
2019-03-26T06:32:19.958Z,60.10
2019-03-26T06:34:50.846Z,60.70
2019-03-26T06:37:21.759Z,61.50
2019-03-26T06:39:52.653Z,60.60
2019-03-26T06:42:23.531Z,59.00
2019-03-26T06:44:54.457Z,58.80
2019-03-26T06:47:25.340Z,57.50
2019-03-26T06:49:56.507Z,56.60
2019-03-26T06:52:27.303Z,55.30
2019-03-26T06:54:58.183Z,53.30
2019-03-26T06:57:35.347Z,52.40
2019-03-26T07:00:01.539Z,47.40
2019-03-26T07:02:32.447Z,46.90
2019-03-26T07:05:03.341Z,46.30
2019-03-26T07:07:34.234Z,43.70
2019-03-26T07:10:05.631Z,43.80
2019-03-26T07:12:36.455Z,45.20
2019-03-26T07:15:08.553Z,43.30
2019-03-26T07:17:39.491Z,43.80
2019-03-26T07:20:10.491Z,45.30
2019-03-26T07:22:41.310Z,47.00
2019-03-26T07:25:12.126Z,46.40
2019-03-26T07:27:42.951Z,45.60
2019-03-26T07:30:16.962Z,45.60
2019-03-26T07:32:47.843Z,45.60
2019-03-26T07:35:18.718Z,45.00
2019-03-26T07:37:49.627Z,45.00
2019-03-26T07:40:20.507Z,45.00
2019-03-26T07:42:51.399Z,43.50
2019-03-26T07:45:22.331Z,42.00
2019-03-26T07:47:53.142Z,41.50
2019-03-26T07:50:24.038Z,41.90
2019-03-26T07:52:54.919Z,43.80
2019-03-26T07:55:25.818Z,44.50
2019-03-26T07:57:56.695Z,43.00
2019-03-26T08:00:37.851Z,42.90
2019-03-26T08:03:08.831Z,41.30
2019-03-26T08:05:39.724Z,39.40
2019-03-26T08:08:10.614Z,40.30
2019-03-26T08:10:41.522Z,39.20
2019-03-26T08:13:12.415Z,41.60
2019-03-26T08:15:43.304Z,44.10
2019-03-26T08:18:14.200Z,46.20
2019-03-26T08:20:45.118Z,46.00
2019-03-26T08:23:15.981Z,45.50
2019-03-26T08:25:46.883Z,45.80
2019-03-26T08:28:17.762Z,45.80
2019-03-26T08:30:50.183Z,45.70
2019-03-26T08:33:23.446Z,44.80
2019-03-26T08:35:53.782Z,46.70
2019-03-26T08:38:24.659Z,46.60
2019-03-26T08:40:55.551Z,45.90
2019-03-26T08:43:26.452Z,45.00
2019-03-26T08:45:57.351Z,45.30
2019-03-26T08:48:28.156Z,46.20
2019-03-26T08:50:59.072Z,46.00
2019-03-26T08:53:29.962Z,45.70
2019-03-26T08:56:00.794Z,47.20
2019-03-26T08:58:31.680Z,47.20
2019-03-26T09:01:02.555Z,45.60
2019-03-26T09:03:33.454Z,45.60
2019-03-26T09:06:04.338Z,45.80
2019-03-26T09:08:35.238Z,44.90
2019-03-26T09:11:06.122Z,43.80
2019-03-26T09:13:36.996Z,41.30
2019-03-26T09:16:07.895Z,42.10
2019-03-26T09:18:38.792Z,42.30
2019-03-26T09:21:09.671Z,41.40
2019-03-26T09:23:40.558Z,40.70
2019-03-26T09:26:11.470Z,40.90
2019-03-26T09:28:42.514Z,39.10
2019-03-26T09:31:13.324Z,39.10
2019-03-26T09:33:44.270Z,42.00
2019-03-26T09:36:15.142Z,41.40
2019-03-26T09:38:45.946Z,40.20
2019-03-26T09:41:16.752Z,42.00
2019-03-26T09:43:47.623Z,41.50
2019-03-26T09:46:18.463Z,40.30
2019-03-26T09:48:49.351Z,41.90
2019-03-26T09:51:20.294Z,41.60
2019-03-26T09:53:51.175Z,41.90
2019-03-26T09:56:28.486Z,43.60
2019-03-26T09:58:54.573Z,43.50
2019-03-26T10:01:25.459Z,44.10
2019-03-26T10:03:56.374Z,43.40
2019-03-26T10:06:27.260Z,42.70
2019-03-26T10:08:58.159Z,43.50
2019-03-26T10:11:29.034Z,44.80
2019-03-26T10:13:59.842Z,44.90
2019-03-26T10:16:30.675Z,44.20
2019-03-26T10:19:01.562Z,43.60
2019-03-26T10:21:32.453Z,43.30
2019-03-26T10:24:03.346Z,45.10
2019-03-26T10:26:34.287Z,45.50
2019-03-26T10:29:23.957Z,46.00
2019-03-26T10:31:39.135Z,47.60
2019-03-26T10:34:10.044Z,46.00
2019-03-26T10:36:41.694Z,45.40
2019-03-26T10:39:12.671Z,43.10
2019-03-26T10:41:43.547Z,42.10
2019-03-26T10:44:14.442Z,41.60
2019-03-26T10:46:45.343Z,42.40
2019-03-26T10:49:16.239Z,43.40
2019-03-26T10:51:47.130Z,42.80
2019-03-26T10:54:17.964Z,43.10
2019-03-26T10:56:48.858Z,42.30
2019-03-26T10:59:19.771Z,44.30
2019-03-26T11:01:50.643Z,41.70
2019-03-26T11:04:21.515Z,41.60
2019-03-26T11:06:52.410Z,42.90
2019-03-26T11:09:27.062Z,43.10
2019-03-26T11:11:55.915Z,43.00
2019-03-26T11:14:26.790Z,43.90
2019-03-26T11:16:57.607Z,43.60
2019-03-26T11:19:28.485Z,40.60
2019-03-26T11:21:59.394Z,39.80
2019-03-26T11:24:30.282Z,42.20
2019-03-26T11:27:01.171Z,45.10
2019-03-26T11:29:32.079Z,41.80
2019-03-26T11:32:02.891Z,43.90
2019-03-26T11:34:33.774Z,43.50
2019-03-26T11:37:04.574Z,42.50
2019-03-26T11:39:35.466Z,41.90
2019-03-26T11:42:06.367Z,41.90
2019-03-26T11:44:37.283Z,41.70
2019-03-26T11:47:08.192Z,41.30
2019-03-26T11:49:39.080Z,40.90
2019-03-26T11:52:09.985Z,42.00
2019-03-26T11:54:40.859Z,41.60
2019-03-26T11:57:11.758Z,41.50
2019-03-26T11:59:42.626Z,40.70
2019-03-26T12:02:13.530Z,40.20
2019-03-26T12:04:44.409Z,40.80
2019-03-26T12:07:15.292Z,41.20
2019-03-26T12:09:46.970Z,40.30
2019-03-26T12:12:17.863Z,42.70
2019-03-26T12:14:48.759Z,43.10
2019-03-26T12:17:19.638Z,43.40
2019-03-26T12:19:50.531Z,43.50
2019-03-26T12:22:21.422Z,43.70
2019-03-26T12:24:52.315Z,43.40
2019-03-26T12:27:23.215Z,43.10
2019-03-26T12:29:54.019Z,43.10
2019-03-26T12:32:24.919Z,42.30
2019-03-26T12:34:55.844Z,43.40
2019-03-26T12:37:26.753Z,43.30
2019-03-26T12:39:59.882Z,43.40
2019-03-26T12:42:30.181Z,43.50
2019-03-26T12:45:01.078Z,42.10
2019-03-26T12:47:31.967Z,43.40
2019-03-26T12:50:02.872Z,43.20
2019-03-26T12:52:33.758Z,41.50
2019-03-26T12:55:04.582Z,41.10
2019-03-26T12:57:35.404Z,41.50
2019-03-26T13:00:06.583Z,40.90
2019-03-26T13:02:37.488Z,40.00
2019-03-26T13:05:08.475Z,39.90
2019-03-26T13:07:39.290Z,40.30
2019-03-26T13:10:14.122Z,41.80
2019-03-26T13:12:42.987Z,41.80
2019-03-26T13:15:13.863Z,41.40
2019-03-26T13:17:44.810Z,41.90
2019-03-26T13:20:15.718Z,42.30
2019-03-26T13:22:47.435Z,42.80
2019-03-26T13:25:18.342Z,41.10
2019-03-26T13:27:49.206Z,42.00
2019-03-26T13:30:20.444Z,42.80
2019-03-26T13:32:51.419Z,41.90
2019-03-26T13:35:22.474Z,41.30
2019-03-26T13:37:53.356Z,41.80
2019-03-26T13:40:27.476Z,41.80
2019-03-26T13:42:57.150Z,40.80
2019-03-26T13:45:28.071Z,40.60
2019-03-26T13:47:58.970Z,41.50
2019-03-26T13:50:29.863Z,41.90
2019-03-26T13:53:11.850Z,42.10
2019-03-26T13:55:42.765Z,42.80
2019-03-26T13:58:13.646Z,42.20
2019-03-26T14:00:44.656Z,40.90
2019-03-26T14:03:15.570Z,39.30
2019-03-26T14:05:46.396Z,39.90
2019-03-26T14:08:17.286Z,39.50
2019-03-26T14:10:48.168Z,40.60
2019-03-26T14:13:19.084Z,40.70
2019-03-26T14:15:50.041Z,41.90
2019-03-26T14:18:20.843Z,42.60
2019-03-26T14:20:51.724Z,40.90
2019-03-26T14:23:22.678Z,41.40
2019-03-26T14:25:53.566Z,41.50
2019-03-26T14:28:24.493Z,41.20
2019-03-26T14:30:55.388Z,42.10
2019-03-26T14:33:26.249Z,42.00
2019-03-26T14:35:57.142Z,41.40
2019-03-26T14:38:28.037Z,42.00
2019-03-26T14:40:58.946Z,42.90
2019-03-26T14:43:29.749Z,43.80
2019-03-26T14:46:00.863Z,43.60
2019-03-26T14:48:31.754Z,43.50
2019-03-26T14:51:02.643Z,43.80
2019-03-26T14:53:33.535Z,43.50
2019-03-26T14:56:04.427Z,43.60
2019-03-26T14:58:35.447Z,43.70
2019-03-26T15:01:06.361Z,44.10
2019-03-26T15:03:37.255Z,44.20
2019-03-26T15:06:08.134Z,44.70
2019-03-26T15:08:39.024Z,44.50
2019-03-26T15:11:09.942Z,44.50
2019-03-26T15:13:40.824Z,44.30
2019-03-26T15:16:11.728Z,43.90
2019-03-26T15:18:42.620Z,43.20
2019-03-26T15:21:13.519Z,43.70
2019-03-26T15:23:44.406Z,43.70
2019-03-26T15:26:15.299Z,43.70
2019-03-26T15:28:47.803Z,43.30
2019-03-26T15:31:18.695Z,43.70
2019-03-26T15:33:49.571Z,43.80
2019-03-26T15:36:20.455Z,44.20
2019-03-26T15:38:51.334Z,44.20
2019-03-26T15:41:22.322Z,45.10
2019-03-26T15:43:53.273Z,44.80
2019-03-26T15:46:24.127Z,44.30
2019-03-26T15:48:54.939Z,44.20
2019-03-26T15:51:25.834Z,44.50
2019-03-26T15:53:56.803Z,45.50
2019-03-26T15:56:27.741Z,45.30
2019-03-26T15:58:58.625Z,45.40
2019-03-26T16:01:29.515Z,45.70
2019-03-26T16:04:00.443Z,45.30
2019-03-26T16:06:31.338Z,45.40
2019-03-26T16:09:02.283Z,45.60
2019-03-26T16:11:35.998Z,45.50
2019-03-26T16:14:05.702Z,45.50
2019-03-26T16:16:36.583Z,45.50
2019-03-26T16:19:07.477Z,45.70
2019-03-26T16:21:38.496Z,45.70
2019-03-26T16:24:09.366Z,46.00
2019-03-26T16:26:40.292Z,46.80
2019-03-26T16:29:11.190Z,46.90
2019-03-26T16:31:42.066Z,47.30
2019-03-26T16:34:12.855Z,47.70
2019-03-26T16:36:43.772Z,48.00
2019-03-26T16:39:14.669Z,48.30
2019-03-26T16:41:49.398Z,48.50
2019-03-26T16:44:18.097Z,48.30
2019-03-26T16:46:48.982Z,48.00
2019-03-26T16:49:19.888Z,47.80
2019-03-26T16:51:50.779Z,47.80
2019-03-26T16:54:21.682Z,47.40
2019-03-26T16:56:52.510Z,47.00
2019-03-26T16:59:23.329Z,47.30
2019-03-26T17:01:54.504Z,47.40
2019-03-26T17:04:25.919Z,47.80
2019-03-26T17:06:56.826Z,48.10
2019-03-26T17:09:27.774Z,48.60
2019-03-26T17:12:03.583Z,48.40
2019-03-26T17:14:31.163Z,48.70
2019-03-26T17:17:02.042Z,48.80
2019-03-26T17:19:32.943Z,48.70
2019-03-26T17:22:03.854Z,49.00
2019-03-26T17:24:34.763Z,49.60
2019-03-26T17:27:05.659Z,50.20
2019-03-26T17:29:36.499Z,50.90
2019-03-26T17:32:07.443Z,51.20
2019-03-26T17:34:38.317Z,51.10
2019-03-26T17:37:09.538Z,51.50
2019-03-26T17:39:40.489Z,51.50
2019-03-26T17:42:17.158Z,51.60
2019-03-26T17:44:43.959Z,51.40
2019-03-26T17:47:14.955Z,51.60
2019-03-26T17:49:46.083Z,51.50
2019-03-26T17:52:17.115Z,50.90
2019-03-26T17:54:48.227Z,51.60
2019-03-26T17:57:19.425Z,51.90
2019-03-26T17:59:50.570Z,52.80
2019-03-26T18:02:21.537Z,52.30
2019-03-26T18:04:52.573Z,52.30
2019-03-26T18:07:23.745Z,51.60
2019-03-26T18:09:54.641Z,52.10
2019-03-26T18:12:30.947Z,53.00
2019-03-26T18:14:58.169Z,53.60
2019-03-26T18:17:29.209Z,54.40
2019-03-26T18:20:00.015Z,54.30
2019-03-26T18:22:30.930Z,55.50
2019-03-26T18:25:01.808Z,56.40
2019-03-26T18:27:32.735Z,56.70
2019-03-26T18:30:03.983Z,57.60
2019-03-26T18:32:42.412Z,58.80
2019-03-26T18:35:13.376Z,59.40
2019-03-26T18:37:44.277Z,60.20
2019-03-26T18:40:15.182Z,61.50
2019-03-26T18:42:46.047Z,67.80
2019-03-26T18:45:18.375Z,66.70
2019-03-26T18:47:49.467Z,63.70
2019-03-26T18:50:20.715Z,62.80
2019-03-26T18:52:51.598Z,62.50
2019-03-26T18:55:25.118Z,63.30
2019-03-26T18:57:55.158Z,64.30
2019-03-26T19:00:34.182Z,64.90
2019-03-26T19:03:05.512Z,65.50
2019-03-26T19:05:36.454Z,66.00
2019-03-26T19:08:07.658Z,66.70
2019-03-26T19:10:38.787Z,67.40
2019-03-26T19:13:19.445Z,67.80
2019-03-26T19:15:42.432Z,68.20
2019-03-26T19:18:13.770Z,69.30
2019-03-26T19:20:44.626Z,69.10
2019-03-26T19:23:15.894Z,69.50
2019-03-26T19:25:46.703Z,69.90
2019-03-26T19:28:17.581Z,71.10
2019-03-26T19:30:48.493Z,72.00
2019-03-26T19:33:19.511Z,73.20
2019-03-26T19:35:50.402Z,74.30
2019-03-26T19:38:21.279Z,75.00
2019-03-26T19:40:52.188Z,75.70
2019-03-26T19:43:23.218Z,76.10
2019-03-26T19:45:54.142Z,77.40
2019-03-26T19:48:25.050Z,77.80
2019-03-26T19:50:56.102Z,78.90
2019-03-26T19:53:26.930Z,97.00
2019-03-26T19:55:57.748Z,87.40
2019-03-26T19:58:28.638Z,81.60
2019-03-26T20:00:59.533Z,81.40
2019-03-26T20:03:30.293Z,82.00
2019-03-26T20:06:12.951Z,83.90
2019-03-26T20:08:33.781Z,84.70
2019-03-26T20:11:04.941Z,82.10
2019-03-26T20:13:35.834Z,80.20
2019-03-26T20:16:06.854Z,80.60
2019-03-26T20:18:38.075Z,81.80
2019-03-26T20:21:09.155Z,84.10
2019-03-26T20:23:39.991Z,84.90
2019-03-26T20:26:10.879Z,86.00
2019-03-26T20:28:42.007Z,86.20
2019-03-26T20:31:12.939Z,86.50
2019-03-26T20:33:44.600Z,86.80
2019-03-26T20:36:15.604Z,87.20
2019-03-26T20:38:46.590Z,87.90
2019-03-26T20:41:17.473Z,88.40
2019-03-26T20:43:48.473Z,88.30
2019-03-26T20:46:19.334Z,87.20
2019-03-26T20:48:50.240Z,90.00
2019-03-26T20:51:21.203Z,90.30
2019-03-26T20:53:52.234Z,90.60
2019-03-26T20:56:23.127Z,91.00
2019-03-26T20:58:55.112Z,90.80
2019-03-26T21:01:26.054Z,91.30
2019-03-26T21:03:57.051Z,91.50
2019-03-26T21:06:27.970Z,91.70
2019-03-26T21:08:58.799Z,92.10
2019-03-26T21:11:29.737Z,92.30
2019-03-26T21:14:00.632Z,92.60
2019-03-26T21:16:31.633Z,92.30
2019-03-26T21:19:02.487Z,92.30
2019-03-26T21:21:33.383Z,93.10
2019-03-26T21:24:04.262Z,93.30
2019-03-26T21:26:35.497Z,93.30
2019-03-26T21:29:06.375Z,93.50
2019-03-26T21:31:37.383Z,93.50
2019-03-26T21:34:08.393Z,94.00
2019-03-26T21:36:39.470Z,94.00
2019-03-26T21:39:10.387Z,93.80
2019-03-26T21:41:41.192Z,94.10
2019-03-26T21:44:12.170Z,94.60
2019-03-26T21:46:43.055Z,94.60
2019-03-26T21:49:13.966Z,95.60
2019-03-26T21:51:44.874Z,96.20
2019-03-26T21:54:15.686Z,96.30
2019-03-26T21:56:46.574Z,96.40
2019-03-26T21:59:17.403Z,96.80
2019-03-26T22:01:48.306Z,97.00
2019-03-26T22:04:19.179Z,97.40
2019-03-26T22:06:50.183Z,97.90
2019-03-26T22:09:21.082Z,98.90
2019-03-26T22:11:52.007Z,98.90
2019-03-26T22:14:22.924Z,99.10
2019-03-26T22:16:53.846Z,99.50
2019-03-26T22:19:28.895Z,99.70
2019-03-26T22:21:57.262Z,99.10
2019-03-26T22:24:28.198Z,99.30
2019-03-26T22:26:59.067Z,99.60
2019-03-26T22:29:29.954Z,99.40
2019-03-26T22:32:00.899Z,99.90
2019-03-26T22:34:31.799Z,99.90
2019-03-26T22:37:02.692Z,99.90
2019-03-26T22:39:33.606Z,99.90
2019-03-26T22:42:04.515Z,99.90
2019-03-26T22:44:35.447Z,99.90
2019-03-26T22:47:06.362Z,99.90
2019-03-26T22:49:37.199Z,99.90
2019-03-26T22:52:08.130Z,99.90
2019-03-26T22:54:38.838Z,99.90
2019-03-26T22:57:09.651Z,99.90
2019-03-26T22:59:40.547Z,99.90
2019-03-26T23:02:11.427Z,99.90
2019-03-26T23:04:42.331Z,99.90
2019-03-26T23:07:13.255Z,99.90
2019-03-26T23:09:49.158Z,99.90
2019-03-26T23:12:19.986Z,99.90
2019-03-26T23:14:51.265Z,99.90
2019-03-26T23:17:22.178Z,99.90
2019-03-26T23:19:56.213Z,99.90
2019-03-26T23:22:27.110Z,99.90
2019-03-26T23:24:58.020Z,99.90
2019-03-26T23:27:28.915Z,99.70
2019-03-26T23:29:59.798Z,99.90
2019-03-26T23:32:30.639Z,99.40
2019-03-26T23:35:01.454Z,99.20
2019-03-26T23:37:32.294Z,99.20
2019-03-26T23:40:03.175Z,98.40
2019-03-26T23:42:34.068Z,98.60
2019-03-26T23:45:05.291Z,98.20
2019-03-26T23:47:36.190Z,97.50
2019-03-26T23:50:08.203Z,96.90
2019-03-26T23:52:39.035Z,96.70
2019-03-26T23:55:10.928Z,97.40
2019-03-26T23:57:41.812Z,97.60
